sensor_id;sensor_type;location;lat;lon;timestamp;temperature;humidity
68215;DHT22;55036;52.138;5.236;2022-10-31T00:01:15;14.00;80.80
68215;DHT22;55036;52.138;5.236;2022-10-31T00:03:42;14.00;80.70
68215;DHT22;55036;52.138;5.236;2022-10-31T00:06:08;14.00;80.80
68215;DHT22;55036;52.138;5.236;2022-10-31T00:08:35;14.00;80.80
68215;DHT22;55036;52.138;5.236;2022-10-31T00:11:02;14.00;80.70
68215;DHT22;55036;52.138;5.236;2022-10-31T00:13:29;13.90;80.60
68215;DHT22;55036;52.138;5.236;2022-10-31T00:15:55;13.90;80.80
68215;DHT22;55036;52.138;5.236;2022-10-31T00:18:22;13.90;80.90
68215;DHT22;55036;52.138;5.236;2022-10-31T00:20:48;13.90;80.80
68215;DHT22;55036;52.138;5.236;2022-10-31T00:23:15;13.90;81.00
68215;DHT22;55036;52.138;5.236;2022-10-31T00:25:42;13.90;81.10
68215;DHT22;55036;52.138;5.236;2022-10-31T00:28:09;13.90;81.20
68215;DHT22;55036;52.138;5.236;2022-10-31T00:30:37;13.90;81.20
68215;DHT22;55036;52.138;5.236;2022-10-31T00:33:04;13.90;81.30
68215;DHT22;55036;52.138;5.236;2022-10-31T00:35:31;13.90;81.40
68215;DHT22;55036;52.138;5.236;2022-10-31T00:37:58;13.90;81.40
68215;DHT22;55036;52.138;5.236;2022-10-31T00:40:25;13.90;81.30
68215;DHT22;55036;52.138;5.236;2022-10-31T00:42:52;13.80;81.50
68215;DHT22;55036;52.138;5.236;2022-10-31T00:45:18;13.80;81.50
68215;DHT22;55036;52.138;5.236;2022-10-31T00:47:45;13.80;81.60
68215;DHT22;55036;52.138;5.236;2022-10-31T00:50:12;13.80;81.50
68215;DHT22;55036;52.138;5.236;2022-10-31T00:52:38;13.80;81.50
68215;DHT22;55036;52.138;5.236;2022-10-31T00:55:05;13.70;81.50
68215;DHT22;55036;52.138;5.236;2022-10-31T00:57:31;13.70;81.50
68215;DHT22;55036;52.138;5.236;2022-10-31T00:59:58;13.70;81.40
68215;DHT22;55036;52.138;5.236;2022-10-31T01:02:25;13.70;81.30
68215;DHT22;55036;52.138;5.236;2022-10-31T01:04:51;13.60;81.30
68215;DHT22;55036;52.138;5.236;2022-10-31T01:07:18;13.60;81.50
68215;DHT22;55036;52.138;5.236;2022-10-31T01:09:44;13.60;81.50
68215;DHT22;55036;52.138;5.236;2022-10-31T01:12:11;13.60;81.60
68215;DHT22;55036;52.138;5.236;2022-10-31T01:14:38;13.60;81.70
68215;DHT22;55036;52.138;5.236;2022-10-31T01:17:04;13.50;81.60
68215;DHT22;55036;52.138;5.236;2022-10-31T01:19:31;13.50;81.70
68215;DHT22;55036;52.138;5.236;2022-10-31T01:21:57;13.50;81.70
68215;DHT22;55036;52.138;5.236;2022-10-31T01:24:24;13.40;81.70
68215;DHT22;55036;52.138;5.236;2022-10-31T01:26:51;13.40;81.70
68215;DHT22;55036;52.138;5.236;2022-10-31T01:29:17;13.40;81.70
68215;DHT22;55036;52.138;5.236;2022-10-31T01:31:44;13.40;81.70
68215;DHT22;55036;52.138;5.236;2022-10-31T01:34:16;13.40;81.50
68215;DHT22;55036;52.138;5.236;2022-10-31T01:36:45;13.30;81.60
68215;DHT22;55036;52.138;5.236;2022-10-31T01:39:14;13.30;81.70
68215;DHT22;55036;52.138;5.236;2022-10-31T01:41:44;13.20;81.60
68215;DHT22;55036;52.138;5.236;2022-10-31T01:46:46;13.20;81.40
68215;DHT22;55036;52.138;5.236;2022-10-31T01:52:04;13.10;81.50
68215;DHT22;55036;52.138;5.236;2022-10-31T01:54:43;13.00;81.50
68215;DHT22;55036;52.138;5.236;2022-10-31T01:57:13;13.00;81.40
68215;DHT22;55036;52.138;5.236;2022-10-31T01:59:43;13.00;81.50
68215;DHT22;55036;52.138;5.236;2022-10-31T02:02:13;12.90;81.50
68215;DHT22;55036;52.138;5.236;2022-10-31T02:04:40;13.00;81.50
68215;DHT22;55036;52.138;5.236;2022-10-31T02:07:12;12.90;81.50
68215;DHT22;55036;52.138;5.236;2022-10-31T02:09:40;12.90;81.30
68215;DHT22;55036;52.138;5.236;2022-10-31T02:12:09;12.80;81.20
68215;DHT22;55036;52.138;5.236;2022-10-31T02:14:37;12.80;81.40
68215;DHT22;55036;52.138;5.236;2022-10-31T02:17:05;12.80;81.30
68215;DHT22;55036;52.138;5.236;2022-10-31T02:19:58;12.70;81.40
68215;DHT22;55036;52.138;5.236;2022-10-31T02:31:15;12.60;81.40
68215;DHT22;55036;52.138;5.236;2022-10-31T02:37:02;12.50;81.50
68215;DHT22;55036;52.138;5.236;2022-10-31T02:39:39;12.50;81.40
68215;DHT22;55036;52.138;5.236;2022-10-31T02:42:13;12.50;81.50
68215;DHT22;55036;52.138;5.236;2022-10-31T02:44:57;12.40;81.40
68215;DHT22;55036;52.138;5.236;2022-10-31T02:47:33;12.50;81.40
68215;DHT22;55036;52.138;5.236;2022-10-31T02:52:32;12.30;81.30
68215;DHT22;55036;52.138;5.236;2022-10-31T02:58:12;12.30;81.40
68215;DHT22;55036;52.138;5.236;2022-10-31T03:00:49;12.30;81.60
68215;DHT22;55036;52.138;5.236;2022-10-31T03:06:16;12.20;81.20
68215;DHT22;55036;52.138;5.236;2022-10-31T03:09:05;12.20;81.40
68215;DHT22;55036;52.138;5.236;2022-10-31T03:11:57;12.20;81.30
68215;DHT22;55036;52.138;5.236;2022-10-31T03:14:38;12.10;81.30
68215;DHT22;55036;52.138;5.236;2022-10-31T03:17:14;12.10;81.40
68215;DHT22;55036;52.138;5.236;2022-10-31T03:19:48;12.10;81.30
68215;DHT22;55036;52.138;5.236;2022-10-31T03:22:22;12.00;81.20
68215;DHT22;55036;52.138;5.236;2022-10-31T03:24:50;12.00;81.10
68215;DHT22;55036;52.138;5.236;2022-10-31T03:27:21;12.00;81.30
68215;DHT22;55036;52.138;5.236;2022-10-31T03:29:50;12.00;81.40
68215;DHT22;55036;52.138;5.236;2022-10-31T03:32:22;11.90;81.50
68215;DHT22;55036;52.138;5.236;2022-10-31T03:34:53;11.90;81.30
68215;DHT22;55036;52.138;5.236;2022-10-31T03:37:23;11.90;81.50
68215;DHT22;55036;52.138;5.236;2022-10-31T03:39:51;11.90;81.70
68215;DHT22;55036;52.138;5.236;2022-10-31T03:42:24;11.90;81.60
68215;DHT22;55036;52.138;5.236;2022-10-31T03:45:18;11.90;81.60
68215;DHT22;55036;52.138;5.236;2022-10-31T03:47:47;11.90;81.60
68215;DHT22;55036;52.138;5.236;2022-10-31T03:50:15;11.90;81.70
68215;DHT22;55036;52.138;5.236;2022-10-31T03:52:49;11.90;81.60
68215;DHT22;55036;52.138;5.236;2022-10-31T03:55:31;11.80;81.50
68215;DHT22;55036;52.138;5.236;2022-10-31T03:58:03;11.80;81.50
68215;DHT22;55036;52.138;5.236;2022-10-31T04:00:33;11.80;81.40
68215;DHT22;55036;52.138;5.236;2022-10-31T04:03:10;11.80;81.40
68215;DHT22;55036;52.138;5.236;2022-10-31T04:05:38;11.80;81.50
68215;DHT22;55036;52.138;5.236;2022-10-31T04:08:09;11.80;81.40
68215;DHT22;55036;52.138;5.236;2022-10-31T04:10:39;11.70;81.30
68215;DHT22;55036;52.138;5.236;2022-10-31T04:13:09;11.70;81.40
68215;DHT22;55036;52.138;5.236;2022-10-31T04:15:38;11.70;82.50
68215;DHT22;55036;52.138;5.236;2022-10-31T04:18:05;11.70;81.70
68215;DHT22;55036;52.138;5.236;2022-10-31T04:20:34;11.80;81.70
68215;DHT22;55036;52.138;5.236;2022-10-31T04:23:01;11.80;81.40
68215;DHT22;55036;52.138;5.236;2022-10-31T04:25:28;11.70;81.60
68215;DHT22;55036;52.138;5.236;2022-10-31T04:27:55;11.70;81.70
68215;DHT22;55036;52.138;5.236;2022-10-31T04:30:22;11.70;81.80
68215;DHT22;55036;52.138;5.236;2022-10-31T04:32:49;11.70;81.80
68215;DHT22;55036;52.138;5.236;2022-10-31T04:35:15;11.70;81.70
68215;DHT22;55036;52.138;5.236;2022-10-31T04:37:42;11.70;81.60
68215;DHT22;55036;52.138;5.236;2022-10-31T04:40:09;11.60;81.50
68215;DHT22;55036;52.138;5.236;2022-10-31T04:42:36;11.60;81.70
68215;DHT22;55036;52.138;5.236;2022-10-31T04:45:03;11.60;81.50
68215;DHT22;55036;52.138;5.236;2022-10-31T04:47:34;11.60;81.30
68215;DHT22;55036;52.138;5.236;2022-10-31T04:50:01;11.50;81.30
68215;DHT22;55036;52.138;5.236;2022-10-31T04:52:28;11.50;81.50
68215;DHT22;55036;52.138;5.236;2022-10-31T04:54:55;11.50;81.60
68215;DHT22;55036;52.138;5.236;2022-10-31T04:57:21;11.50;81.70
68215;DHT22;55036;52.138;5.236;2022-10-31T04:59:48;11.50;81.90
68215;DHT22;55036;52.138;5.236;2022-10-31T05:02:14;11.50;82.00
68215;DHT22;55036;52.138;5.236;2022-10-31T05:04:41;11.50;82.00
68215;DHT22;55036;52.138;5.236;2022-10-31T05:07:08;11.50;82.00
68215;DHT22;55036;52.138;5.236;2022-10-31T05:09:34;11.50;82.00
68215;DHT22;55036;52.138;5.236;2022-10-31T05:12:01;11.40;82.00
68215;DHT22;55036;52.138;5.236;2022-10-31T05:14:27;11.40;81.80
68215;DHT22;55036;52.138;5.236;2022-10-31T05:16:54;11.40;81.70
68215;DHT22;55036;52.138;5.236;2022-10-31T05:19:21;11.40;81.40
68215;DHT22;55036;52.138;5.236;2022-10-31T05:21:47;11.30;81.70
68215;DHT22;55036;52.138;5.236;2022-10-31T05:24:14;11.30;81.70
68215;DHT22;55036;52.138;5.236;2022-10-31T05:26:40;11.30;81.50
68215;DHT22;55036;52.138;5.236;2022-10-31T05:29:07;11.30;81.40
68215;DHT22;55036;52.138;5.236;2022-10-31T05:31:33;11.20;81.60
68215;DHT22;55036;52.138;5.236;2022-10-31T05:34:00;11.20;81.60
68215;DHT22;55036;52.138;5.236;2022-10-31T05:36:26;11.20;81.70
68215;DHT22;55036;52.138;5.236;2022-10-31T05:38:53;11.20;81.50
68215;DHT22;55036;52.138;5.236;2022-10-31T05:41:20;11.20;81.70
68215;DHT22;55036;52.138;5.236;2022-10-31T05:43:46;11.20;81.90
68215;DHT22;55036;52.138;5.236;2022-10-31T05:46:13;11.10;81.80
68215;DHT22;55036;52.138;5.236;2022-10-31T05:48:39;11.10;81.70
68215;DHT22;55036;52.138;5.236;2022-10-31T05:51:06;11.10;81.40
68215;DHT22;55036;52.138;5.236;2022-10-31T05:53:33;11.10;81.50
68215;DHT22;55036;52.138;5.236;2022-10-31T05:55:59;11.00;81.60
68215;DHT22;55036;52.138;5.236;2022-10-31T05:58:26;11.10;81.70
68215;DHT22;55036;52.138;5.236;2022-10-31T06:00:53;11.00;81.70
68215;DHT22;55036;52.138;5.236;2022-10-31T06:03:19;11.00;81.50
68215;DHT22;55036;52.138;5.236;2022-10-31T06:05:46;10.90;81.30
68215;DHT22;55036;52.138;5.236;2022-10-31T06:08:19;10.90;81.50
68215;DHT22;55036;52.138;5.236;2022-10-31T06:10:46;10.90;81.70
68215;DHT22;55036;52.138;5.236;2022-10-31T06:13:12;10.80;81.50
68215;DHT22;55036;52.138;5.236;2022-10-31T06:15:39;10.80;81.50
68215;DHT22;55036;52.138;5.236;2022-10-31T06:18:08;10.80;81.50
68215;DHT22;55036;52.138;5.236;2022-10-31T06:20:34;10.80;81.50
68215;DHT22;55036;52.138;5.236;2022-10-31T06:23:01;10.80;81.70
68215;DHT22;55036;52.138;5.236;2022-10-31T06:25:29;10.80;81.70
68215;DHT22;55036;52.138;5.236;2022-10-31T06:27:56;10.70;81.60
68215;DHT22;55036;52.138;5.236;2022-10-31T06:30:23;10.70;81.80
68215;DHT22;55036;52.138;5.236;2022-10-31T06:32:50;10.80;81.80
68215;DHT22;55036;52.138;5.236;2022-10-31T06:35:17;10.80;81.90
68215;DHT22;55036;52.138;5.236;2022-10-31T06:37:51;10.80;81.80
68215;DHT22;55036;52.138;5.236;2022-10-31T06:40:18;10.80;81.90
68215;DHT22;55036;52.138;5.236;2022-10-31T06:42:44;10.70;81.80
68215;DHT22;55036;52.138;5.236;2022-10-31T06:45:11;10.70;81.70
68215;DHT22;55036;52.138;5.236;2022-10-31T06:47:37;10.80;81.90
68215;DHT22;55036;52.138;5.236;2022-10-31T06:50:23;10.70;82.00
68215;DHT22;55036;52.138;5.236;2022-10-31T06:52:54;10.70;82.10
68215;DHT22;55036;52.138;5.236;2022-10-31T06:55:21;10.70;82.00
68215;DHT22;55036;52.138;5.236;2022-10-31T06:57:52;10.70;82.00
68215;DHT22;55036;52.138;5.236;2022-10-31T07:00:23;10.70;82.30
68215;DHT22;55036;52.138;5.236;2022-10-31T07:03:02;10.80;82.30
68215;DHT22;55036;52.138;5.236;2022-10-31T07:05:29;10.80;82.00
68215;DHT22;55036;52.138;5.236;2022-10-31T07:07:58;10.80;82.10
68215;DHT22;55036;52.138;5.236;2022-10-31T07:10:27;10.80;82.40
68215;DHT22;55036;52.138;5.236;2022-10-31T07:13:00;10.90;82.60
68215;DHT22;55036;52.138;5.236;2022-10-31T07:15:29;10.90;82.60
68215;DHT22;55036;52.138;5.236;2022-10-31T07:18:07;10.90;82.50
68215;DHT22;55036;52.138;5.236;2022-10-31T07:20:34;11.00;82.60
68215;DHT22;55036;52.138;5.236;2022-10-31T07:23:01;11.10;82.80
68215;DHT22;55036;52.138;5.236;2022-10-31T07:25:28;11.10;83.30
68215;DHT22;55036;52.138;5.236;2022-10-31T07:27:55;11.20;83.40
68215;DHT22;55036;52.138;5.236;2022-10-31T07:30:21;11.20;83.40
68215;DHT22;55036;52.138;5.236;2022-10-31T07:32:49;11.40;83.60
68215;DHT22;55036;52.138;5.236;2022-10-31T07:35:19;11.40;83.60
68215;DHT22;55036;52.138;5.236;2022-10-31T07:37:46;11.50;83.60
68215;DHT22;55036;52.138;5.236;2022-10-31T07:40:13;11.60;83.70
68215;DHT22;55036;52.138;5.236;2022-10-31T07:42:42;11.70;83.80
68215;DHT22;55036;52.138;5.236;2022-10-31T07:45:12;11.70;83.80
68215;DHT22;55036;52.138;5.236;2022-10-31T07:47:46;11.80;83.80
68215;DHT22;55036;52.138;5.236;2022-10-31T07:50:15;11.80;83.80
68215;DHT22;55036;52.138;5.236;2022-10-31T07:52:43;11.80;83.80
68215;DHT22;55036;52.138;5.236;2022-10-31T07:55:09;11.90;84.10
68215;DHT22;55036;52.138;5.236;2022-10-31T07:57:36;12.00;84.40
68215;DHT22;55036;52.138;5.236;2022-10-31T08:00:05;12.20;85.30
68215;DHT22;55036;52.138;5.236;2022-10-31T08:02:31;12.40;85.00
68215;DHT22;55036;52.138;5.236;2022-10-31T08:04:58;12.50;84.60
68215;DHT22;55036;52.138;5.236;2022-10-31T08:07:27;12.60;84.40
68215;DHT22;55036;52.138;5.236;2022-10-31T08:09:55;12.70;84.40
68215;DHT22;55036;52.138;5.236;2022-10-31T08:12:22;12.80;84.50
68215;DHT22;55036;52.138;5.236;2022-10-31T08:14:49;13.00;84.60
68215;DHT22;55036;52.138;5.236;2022-10-31T08:17:16;13.10;84.90
68215;DHT22;55036;52.138;5.236;2022-10-31T08:19:43;13.30;84.70
68215;DHT22;55036;52.138;5.236;2022-10-31T08:22:09;13.40;84.60
68215;DHT22;55036;52.138;5.236;2022-10-31T08:24:36;13.60;84.30
68215;DHT22;55036;52.138;5.236;2022-10-31T08:27:02;13.70;84.40
68215;DHT22;55036;52.138;5.236;2022-10-31T08:29:29;13.90;84.60
68215;DHT22;55036;52.138;5.236;2022-10-31T08:31:57;14.00;84.50
68215;DHT22;55036;52.138;5.236;2022-10-31T08:34:24;14.10;84.30
68215;DHT22;55036;52.138;5.236;2022-10-31T08:36:51;14.30;84.30
68215;DHT22;55036;52.138;5.236;2022-10-31T08:39:18;14.30;84.30
68215;DHT22;55036;52.138;5.236;2022-10-31T08:41:44;14.40;84.20
68215;DHT22;55036;52.138;5.236;2022-10-31T08:44:11;14.50;84.00
68215;DHT22;55036;52.138;5.236;2022-10-31T08:46:38;14.60;84.00
68215;DHT22;55036;52.138;5.236;2022-10-31T08:49:05;14.60;83.80
68215;DHT22;55036;52.138;5.236;2022-10-31T08:51:31;14.60;83.60
68215;DHT22;55036;52.138;5.236;2022-10-31T08:53:58;14.70;83.90
68215;DHT22;55036;52.138;5.236;2022-10-31T08:56:24;14.80;83.80
68215;DHT22;55036;52.138;5.236;2022-10-31T08:58:52;14.90;83.70
68215;DHT22;55036;52.138;5.236;2022-10-31T09:01:19;15.00;83.70
68215;DHT22;55036;52.138;5.236;2022-10-31T09:03:46;15.10;84.10
68215;DHT22;55036;52.138;5.236;2022-10-31T09:06:12;15.20;83.70
68215;DHT22;55036;52.138;5.236;2022-10-31T09:08:39;15.30;83.70
68215;DHT22;55036;52.138;5.236;2022-10-31T09:11:06;15.40;83.70
68215;DHT22;55036;52.138;5.236;2022-10-31T09:13:33;15.50;83.60
68215;DHT22;55036;52.138;5.236;2022-10-31T09:16:06;15.50;83.10
68215;DHT22;55036;52.138;5.236;2022-10-31T09:18:33;15.50;83.40
68215;DHT22;55036;52.138;5.236;2022-10-31T09:21:00;15.70;83.60
68215;DHT22;55036;52.138;5.236;2022-10-31T09:23:27;15.80;83.80
68215;DHT22;55036;52.138;5.236;2022-10-31T09:25:55;16.00;84.10
68215;DHT22;55036;52.138;5.236;2022-10-31T09:28:23;16.20;83.80
68215;DHT22;55036;52.138;5.236;2022-10-31T09:30:51;16.40;83.80
68215;DHT22;55036;52.138;5.236;2022-10-31T09:33:19;16.40;82.80
68215;DHT22;55036;52.138;5.236;2022-10-31T09:35:46;16.40;83.20
68215;DHT22;55036;52.138;5.236;2022-10-31T09:38:18;16.50;82.80
68215;DHT22;55036;52.138;5.236;2022-10-31T09:47:17;16.40;83.00
68215;DHT22;55036;52.138;5.236;2022-10-31T09:52:24;16.50;82.80
68215;DHT22;55036;52.138;5.236;2022-10-31T09:55:20;16.50;82.60
68215;DHT22;55036;52.138;5.236;2022-10-31T09:57:50;16.60;82.50
68215;DHT22;55036;52.138;5.236;2022-10-31T10:00:19;16.60;82.60
68215;DHT22;55036;52.138;5.236;2022-10-31T10:03:13;16.60;82.20
68215;DHT22;55036;52.138;5.236;2022-10-31T10:08:35;16.50;82.60
68215;DHT22;55036;52.138;5.236;2022-10-31T10:22:47;16.40;82.90
68215;DHT22;55036;52.138;5.236;2022-10-31T10:25:33;16.50;82.60
68215;DHT22;55036;52.138;5.236;2022-10-31T10:28:37;16.40;82.50
68215;DHT22;55036;52.138;5.236;2022-10-31T10:31:14;16.40;82.50
68215;DHT22;55036;52.138;5.236;2022-10-31T10:37:00;16.40;82.00
68215;DHT22;55036;52.138;5.236;2022-10-31T10:39:40;16.40;82.30
68215;DHT22;55036;52.138;5.236;2022-10-31T10:42:12;16.50;82.30
68215;DHT22;55036;52.138;5.236;2022-10-31T10:44:58;16.50;82.30
68215;DHT22;55036;52.138;5.236;2022-10-31T10:47:50;16.60;82.10
68215;DHT22;55036;52.138;5.236;2022-10-31T10:58:26;16.70;81.70
68215;DHT22;55036;52.138;5.236;2022-10-31T11:00:54;16.70;81.20
68215;DHT22;55036;52.138;5.236;2022-10-31T11:03:21;16.70;81.70
68215;DHT22;55036;52.138;5.236;2022-10-31T11:08:35;16.60;81.80
68215;DHT22;55036;52.138;5.236;2022-10-31T11:11:29;16.60;82.00
68215;DHT22;55036;52.138;5.236;2022-10-31T11:14:03;16.60;82.20
68215;DHT22;55036;52.138;5.236;2022-10-31T11:16:35;16.80;82.30
68215;DHT22;55036;52.138;5.236;2022-10-31T11:19:17;16.80;82.10
68215;DHT22;55036;52.138;5.236;2022-10-31T11:21:46;16.90;81.90
68215;DHT22;55036;52.138;5.236;2022-10-31T11:24:27;17.00;81.70
68215;DHT22;55036;52.138;5.236;2022-10-31T11:27:16;17.00;81.70
68215;DHT22;55036;52.138;5.236;2022-10-31T11:29:46;17.10;81.90
68215;DHT22;55036;52.138;5.236;2022-10-31T11:32:20;17.10;82.00
68215;DHT22;55036;52.138;5.236;2022-10-31T11:34:55;17.10;81.70
68215;DHT22;55036;52.138;5.236;2022-10-31T11:37:25;17.10;82.80
68215;DHT22;55036;52.138;5.236;2022-10-31T11:40:02;17.30;82.10
68215;DHT22;55036;52.138;5.236;2022-10-31T11:42:36;17.40;82.90
68215;DHT22;55036;52.138;5.236;2022-10-31T11:47:51;17.50;81.40
68215;DHT22;55036;52.138;5.236;2022-10-31T11:50:40;17.50;81.30
68215;DHT22;55036;52.138;5.236;2022-10-31T11:53:17;17.50;81.20
68215;DHT22;55036;52.138;5.236;2022-10-31T11:55:45;17.40;80.80
68215;DHT22;55036;52.138;5.236;2022-10-31T11:58:24;17.40;80.90
68215;DHT22;55036;52.138;5.236;2022-10-31T12:00:56;17.30;81.40
68215;DHT22;55036;52.138;5.236;2022-10-31T12:08:27;17.30;80.40
68215;DHT22;55036;52.138;5.236;2022-10-31T12:13:33;17.30;80.70
68215;DHT22;55036;52.138;5.236;2022-10-31T12:16:25;17.20;81.80
68215;DHT22;55036;52.138;5.236;2022-10-31T12:18:58;17.20;80.40
68215;DHT22;55036;52.138;5.236;2022-10-31T12:21:41;17.20;80.90
68215;DHT22;55036;52.138;5.236;2022-10-31T12:24:52;17.20;80.90
68215;DHT22;55036;52.138;5.236;2022-10-31T12:30:14;17.10;81.10
68215;DHT22;55036;52.138;5.236;2022-10-31T12:33:23;17.10;81.20
68215;DHT22;55036;52.138;5.236;2022-10-31T12:36:03;17.10;81.30
68215;DHT22;55036;52.138;5.236;2022-10-31T12:52:44;17.10;81.20
68215;DHT22;55036;52.138;5.236;2022-10-31T12:57:54;17.20;81.40
68215;DHT22;55036;52.138;5.236;2022-10-31T13:00:24;17.20;80.70
68215;DHT22;55036;52.138;5.236;2022-10-31T13:05:39;17.30;80.60
68215;DHT22;55036;52.138;5.236;2022-10-31T13:08:19;17.30;80.90
68215;DHT22;55036;52.138;5.236;2022-10-31T13:10:50;17.40;80.50
68215;DHT22;55036;52.138;5.236;2022-10-31T13:13:24;17.40;80.90
68215;DHT22;55036;52.138;5.236;2022-10-31T13:16:14;17.40;80.50
68215;DHT22;55036;52.138;5.236;2022-10-31T13:18:48;17.40;80.60
68215;DHT22;55036;52.138;5.236;2022-10-31T13:21:27;17.30;80.80
68215;DHT22;55036;52.138;5.236;2022-10-31T13:23:56;17.30;80.90
68215;DHT22;55036;52.138;5.236;2022-10-31T13:26:33;17.20;81.00
68215;DHT22;55036;52.138;5.236;2022-10-31T13:29:33;17.20;81.40
68215;DHT22;55036;52.138;5.236;2022-10-31T13:32:06;17.20;81.40
68215;DHT22;55036;52.138;5.236;2022-10-31T13:34:42;17.30;81.10
68215;DHT22;55036;52.138;5.236;2022-10-31T13:37:27;17.30;81.30
68215;DHT22;55036;52.138;5.236;2022-10-31T13:40:12;17.40;80.90
68215;DHT22;55036;52.138;5.236;2022-10-31T13:45:25;17.40;82.10
68215;DHT22;55036;52.138;5.236;2022-10-31T13:51:01;17.40;80.70
68215;DHT22;55036;52.138;5.236;2022-10-31T13:56:24;17.40;80.90
68215;DHT22;55036;52.138;5.236;2022-10-31T14:01:49;17.50;80.70
68215;DHT22;55036;52.138;5.236;2022-10-31T14:04:23;17.40;80.70
68215;DHT22;55036;52.138;5.236;2022-10-31T14:09:27;17.50;80.50
68215;DHT22;55036;52.138;5.236;2022-10-31T14:11:56;17.50;80.60
68215;DHT22;55036;52.138;5.236;2022-10-31T14:14:30;17.40;80.40
68215;DHT22;55036;52.138;5.236;2022-10-31T14:16:57;17.40;80.40
68215;DHT22;55036;52.138;5.236;2022-10-31T14:19:24;17.40;80.80
68215;DHT22;55036;52.138;5.236;2022-10-31T14:21:52;17.40;80.80
68215;DHT22;55036;52.138;5.236;2022-10-31T14:26:58;17.40;80.90
68215;DHT22;55036;52.138;5.236;2022-10-31T14:29:34;17.40;80.90
68215;DHT22;55036;52.138;5.236;2022-10-31T14:34:52;17.30;81.20
68215;DHT22;55036;52.138;5.236;2022-10-31T14:40:20;17.40;80.90
68215;DHT22;55036;52.138;5.236;2022-10-31T14:45:31;17.40;80.80
68215;DHT22;55036;52.138;5.236;2022-10-31T14:48:14;17.40;80.70
68215;DHT22;55036;52.138;5.236;2022-10-31T14:51:09;17.50;80.60
68215;DHT22;55036;52.138;5.236;2022-10-31T14:54:04;17.50;80.80
68215;DHT22;55036;52.138;5.236;2022-10-31T14:56:34;17.50;80.60
68215;DHT22;55036;52.138;5.236;2022-10-31T14:59:06;17.40;80.90
68215;DHT22;55036;52.138;5.236;2022-10-31T15:01:36;17.40;80.90
68215;DHT22;55036;52.138;5.236;2022-10-31T15:04:19;17.50;80.80
68215;DHT22;55036;52.138;5.236;2022-10-31T15:07:05;17.40;80.90
68215;DHT22;55036;52.138;5.236;2022-10-31T15:09:35;17.30;81.00
68215;DHT22;55036;52.138;5.236;2022-10-31T15:12:23;17.30;81.10
68215;DHT22;55036;52.138;5.236;2022-10-31T15:14:50;17.30;81.30
68215;DHT22;55036;52.138;5.236;2022-10-31T15:17:18;17.20;81.70
68215;DHT22;55036;52.138;5.236;2022-10-31T15:19:45;17.10;81.90
68215;DHT22;55036;52.138;5.236;2022-10-31T15:22:16;17.10;82.50
68215;DHT22;55036;52.138;5.236;2022-10-31T15:24:43;17.00;82.30
68215;DHT22;55036;52.138;5.236;2022-10-31T15:27:13;17.10;82.40
68215;DHT22;55036;52.138;5.236;2022-10-31T15:29:54;17.10;82.90
68215;DHT22;55036;52.138;5.236;2022-10-31T15:32:23;17.00;82.60
68215;DHT22;55036;52.138;5.236;2022-10-31T15:34:51;17.00;83.20
68215;DHT22;55036;52.138;5.236;2022-10-31T15:37:20;17.00;83.30
68215;DHT22;55036;52.138;5.236;2022-10-31T15:39:48;17.00;83.30
68215;DHT22;55036;52.138;5.236;2022-10-31T15:42:19;17.00;83.70
68215;DHT22;55036;52.138;5.236;2022-10-31T15:44:51;17.00;83.40
68215;DHT22;55036;52.138;5.236;2022-10-31T15:47:22;17.00;83.20
68215;DHT22;55036;52.138;5.236;2022-10-31T15:49:53;17.00;83.20
68215;DHT22;55036;52.138;5.236;2022-10-31T15:52:28;17.00;83.20
68215;DHT22;55036;52.138;5.236;2022-10-31T15:55:03;17.00;83.30
68215;DHT22;55036;52.138;5.236;2022-10-31T15:57:31;16.90;83.40
68215;DHT22;55036;52.138;5.236;2022-10-31T15:59:58;16.90;83.60
68215;DHT22;55036;52.138;5.236;2022-10-31T16:02:26;17.00;83.30
68215;DHT22;55036;52.138;5.236;2022-10-31T16:04:56;16.90;83.60
68215;DHT22;55036;52.138;5.236;2022-10-31T16:07:24;16.90;83.40
68215;DHT22;55036;52.138;5.236;2022-10-31T16:09:59;17.00;83.20
68215;DHT22;55036;52.138;5.236;2022-10-31T16:12:35;16.90;83.20
68215;DHT22;55036;52.138;5.236;2022-10-31T16:15:03;16.90;83.60
68215;DHT22;55036;52.138;5.236;2022-10-31T16:17:31;16.80;83.50
68215;DHT22;55036;52.138;5.236;2022-10-31T16:20:00;16.80;83.70
68215;DHT22;55036;52.138;5.236;2022-10-31T16:22:36;16.80;83.60
68215;DHT22;55036;52.138;5.236;2022-10-31T16:25:19;16.80;83.30
68215;DHT22;55036;52.138;5.236;2022-10-31T16:27:51;16.70;84.10
68215;DHT22;55036;52.138;5.236;2022-10-31T16:30:39;16.70;84.10
68215;DHT22;55036;52.138;5.236;2022-10-31T16:36:00;16.70;83.80
68215;DHT22;55036;52.138;5.236;2022-10-31T16:38:49;16.70;83.90
68215;DHT22;55036;52.138;5.236;2022-10-31T16:41:16;16.70;83.70
68215;DHT22;55036;52.138;5.236;2022-10-31T16:43:42;16.60;83.70
68215;DHT22;55036;52.138;5.236;2022-10-31T16:46:15;16.70;83.40
68215;DHT22;55036;52.138;5.236;2022-10-31T16:48:42;16.70;83.20
68215;DHT22;55036;52.138;5.236;2022-10-31T16:51:09;16.70;82.90
68215;DHT22;55036;52.138;5.236;2022-10-31T16:53:36;16.60;83.40
68215;DHT22;55036;52.138;5.236;2022-10-31T16:56:17;16.50;83.90
68215;DHT22;55036;52.138;5.236;2022-10-31T16:58:46;16.40;84.00
68215;DHT22;55036;52.138;5.236;2022-10-31T17:01:13;16.50;83.80
68215;DHT22;55036;52.138;5.236;2022-10-31T17:03:40;16.50;83.40
68215;DHT22;55036;52.138;5.236;2022-10-31T17:06:12;16.50;83.60
68215;DHT22;55036;52.138;5.236;2022-10-31T17:08:39;16.50;83.40
68215;DHT22;55036;52.138;5.236;2022-10-31T17:11:05;16.50;83.70
68215;DHT22;55036;52.138;5.236;2022-10-31T17:13:34;16.40;83.80
68215;DHT22;55036;52.138;5.236;2022-10-31T17:16:02;16.40;83.90
68215;DHT22;55036;52.138;5.236;2022-10-31T17:18:29;16.30;84.60
68215;DHT22;55036;52.138;5.236;2022-10-31T17:20:58;16.20;84.90
68215;DHT22;55036;52.138;5.236;2022-10-31T17:23:25;16.30;84.60
68215;DHT22;55036;52.138;5.236;2022-10-31T17:25:52;16.40;84.20
68215;DHT22;55036;52.138;5.236;2022-10-31T17:28:19;16.40;84.30
68215;DHT22;55036;52.138;5.236;2022-10-31T17:30:46;16.30;84.50
68215;DHT22;55036;52.138;5.236;2022-10-31T17:33:14;16.30;85.50
68215;DHT22;55036;52.138;5.236;2022-10-31T17:35:42;16.20;84.50
68215;DHT22;55036;52.138;5.236;2022-10-31T17:38:10;16.20;84.50
68215;DHT22;55036;52.138;5.236;2022-10-31T17:40:39;16.20;84.70
68215;DHT22;55036;52.138;5.236;2022-10-31T17:43:09;16.20;84.30
68215;DHT22;55036;52.138;5.236;2022-10-31T17:45:38;16.20;84.20
68215;DHT22;55036;52.138;5.236;2022-10-31T17:48:05;16.20;84.50
68215;DHT22;55036;52.138;5.236;2022-10-31T17:50:32;16.20;84.60
68215;DHT22;55036;52.138;5.236;2022-10-31T17:52:59;16.10;84.70
68215;DHT22;55036;52.138;5.236;2022-10-31T17:55:26;16.10;84.50
68215;DHT22;55036;52.138;5.236;2022-10-31T17:57:52;16.00;85.10